Time;durP1;ratioP1;P1;durP2;ratioP2;P2;SDS_P1;SDS_P2;PMS_P1;PMS_P2;Temp;Humidity;BMP_temperature;BMP_pressure;BME280_temperature;BME280_humidity;BME280_pressure;Samples;Min_cycle;Max_cycle;Signal;HPM_P1;HPM_P2
2021/09/13 00:02:07;;;;;;;3.80;2.30;;;;;;;;;;5035604;28;20207;-81
2021/09/13 00:04:35;;;;;;;2.83;2.37;;;;;;;;;;5035116;28;20222;-81
2021/09/13 00:07:02;;;;;;;2.37;2.20;;;;;;;;;;5053451;28;20231;-82
2021/09/13 00:09:29;;;;;;;4.97;2.23;;;;;;;;;;5035503;28;20195;-81
2021/09/13 00:11:56;;;;;;;2.70;2.50;;;;;;;;;;5053468;28;20651;-81
2021/09/13 00:14:22;;;;;;;2.60;2.40;;;;;;;;;;5053115;28;20211;-81
2021/09/13 00:16:49;;;;;;;2.77;2.57;;;;;;;;;;5035159;28;20202;-81
2021/09/13 00:19:16;;;;;;;2.87;2.43;;;;;;;;;;5034886;28;20222;-82
2021/09/13 00:21:44;;;;;;;2.60;2.27;;;;;;;;;;5035158;28;20219;-81
2021/09/13 00:24:11;;;;;;;2.47;2.30;;;;;;;;;;5034826;28;20221;-82
2021/09/13 00:26:38;;;;;;;4.80;2.40;;;;;;;;;;5035092;28;20289;-81
2021/09/13 00:29:04;;;;;;;2.30;2.10;;;;;;;;;;5035190;28;20210;-81
2021/09/13 00:31:31;;;;;;;2.60;2.40;;;;;;;;;;5034778;28;20223;-81
2021/09/13 00:33:58;;;;;;;3.00;2.60;;;;;;;;;;5035043;28;20207;-82
2021/09/13 00:36:24;;;;;;;2.60;2.50;;;;;;;;;;5034846;28;20195;-81
2021/09/13 00:38:54;;;;;;;2.73;2.53;;;;;;;;;;5052966;28;20714;-80
2021/09/13 00:41:21;;;;;;;2.63;2.50;;;;;;;;;;5052940;28;20207;-81
2021/09/13 00:43:48;;;;;;;2.43;2.33;;;;;;;;;;5034961;28;20183;-80
2021/09/13 00:46:15;;;;;;;2.50;2.30;;;;;;;;;;5034800;28;20250;-81
2021/09/13 00:48:41;;;;;;;6.27;2.73;;;;;;;;;;5034483;28;20199;-81
2021/09/13 00:51:08;;;;;;;3.10;2.70;;;;;;;;;;5052525;28;20216;-82
2021/09/13 00:53:35;;;;;;;2.50;2.30;;;;;;;;;;5034956;28;20187;-81
2021/09/13 00:56:04;;;;;;;2.67;2.43;;;;;;;;;;5034781;28;20245;-81
2021/09/13 00:58:30;;;;;;;4.40;2.40;;;;;;;;;;5034805;28;20226;-81
2021/09/13 01:00:57;;;;;;;3.00;2.23;;;;;;;;;;5034786;28;20613;-81
2021/09/13 01:03:24;;;;;;;4.60;2.60;;;;;;;;;;5034548;28;20227;-81
2021/09/13 01:05:51;;;;;;;2.40;2.20;;;;;;;;;;5034665;28;20242;-81
2021/09/13 01:08:18;;;;;;;2.57;2.37;;;;;;;;;;5034619;28;20207;-81
2021/09/13 01:10:47;;;;;;;5.37;2.70;;;;;;;;;;5052740;28;20180;-81
2021/09/13 01:13:15;;;;;;;4.23;2.40;;;;;;;;;;5034410;28;20233;-82
2021/09/13 01:15:42;;;;;;;3.40;2.53;;;;;;;;;;5034768;28;20226;-81
2021/09/13 01:18:09;;;;;;;2.80;2.60;;;;;;;;;;5052251;28;20215;-82
2021/09/13 01:20:36;;;;;;;3.37;2.60;;;;;;;;;;5034645;28;20256;-81
2021/09/13 01:23:06;;;;;;;2.90;2.70;;;;;;;;;;5034538;28;20225;-81
2021/09/13 01:25:35;;;;;;;2.90;2.70;;;;;;;;;;5034634;28;20195;-81
2021/09/13 01:28:01;;;;;;;2.90;2.70;;;;;;;;;;5034409;28;20740;-81
2021/09/13 01:30:29;;;;;;;2.40;2.20;;;;;;;;;;5052117;28;20651;-82
2021/09/13 01:32:56;;;;;;;2.80;2.60;;;;;;;;;;5034186;28;20187;-82
2021/09/13 01:35:22;;;;;;;3.27;2.97;;;;;;;;;;5034421;28;20194;-81
2021/09/13 01:37:49;;;;;;;2.77;2.30;;;;;;;;;;5034420;28;20184;-81
2021/09/13 01:40:16;;;;;;;3.07;2.67;;;;;;;;;;5034596;28;20218;-81
2021/09/13 01:42:44;;;;;;;2.73;2.37;;;;;;;;;;5034364;28;20192;-81
2021/09/13 01:45:11;;;;;;;2.63;2.43;;;;;;;;;;5034232;28;20195;-81
2021/09/13 01:47:38;;;;;;;2.90;2.70;;;;;;;;;;5034271;28;20234;-82
2021/09/13 01:50:05;;;;;;;3.30;2.80;;;;;;;;;;5034128;28;20269;-82
2021/09/13 01:52:31;;;;;;;3.30;2.40;;;;;;;;;;5052129;28;20245;-81
2021/09/13 01:54:58;;;;;;;2.80;2.60;;;;;;;;;;5034445;28;20191;-81
2021/09/13 01:57:25;;;;;;;3.10;2.90;;;;;;;;;;5034120;28;20214;-82
2021/09/13 01:59:53;;;;;;;3.50;3.00;;;;;;;;;;5033963;28;20188;-80
2021/09/13 02:02:19;;;;;;;2.80;2.60;;;;;;;;;;5034250;28;20200;-81
2021/09/13 02:04:46;;;;;;;5.27;2.47;;;;;;;;;;5052003;28;20205;-80
2021/09/13 02:07:13;;;;;;;4.50;2.90;;;;;;;;;;5033211;28;20310;-81
2021/09/13 02:09:39;;;;;;;2.70;2.50;;;;;;;;;;5033934;28;20718;-81
2021/09/13 02:12:07;;;;;;;2.53;2.40;;;;;;;;;;5033986;28;20551;-81
2021/09/13 02:14:33;;;;;;;2.83;2.73;;;;;;;;;;5033833;28;20195;-81
2021/09/13 02:17:01;;;;;;;2.87;2.60;;;;;;;;;;5035690;28;20233;-81
2021/09/13 02:19:28;;;;;;;3.20;2.97;;;;;;;;;;5037365;28;20261;-81
2021/09/13 02:21:55;;;;;;;5.37;2.80;;;;;;;;;;5037309;28;20191;-82
2021/09/13 02:24:22;;;;;;;3.13;2.87;;;;;;;;;;5055321;28;20218;-82
2021/09/13 02:26:49;;;;;;;3.17;2.83;;;;;;;;;;5037337;28;20211;-81
2021/09/13 02:29:16;;;;;;;3.23;2.87;;;;;;;;;;5037148;28;20195;-81
2021/09/13 02:31:42;;;;;;;3.00;2.80;;;;;;;;;;5036738;28;20253;-82
2021/09/13 02:34:10;;;;;;;3.07;2.73;;;;;;;;;;5037341;28;20226;-82
2021/09/13 02:36:37;;;;;;;3.57;2.90;;;;;;;;;;5037189;28;20199;-81
2021/09/13 02:39:04;;;;;;;2.60;2.50;;;;;;;;;;5037510;28;20214;-81
2021/09/13 02:41:31;;;;;;;3.30;3.00;;;;;;;;;;5037175;28;20234;-81
2021/09/13 02:43:57;;;;;;;2.97;2.77;;;;;;;;;;5037211;28;20192;-81
2021/09/13 02:46:24;;;;;;;2.87;2.57;;;;;;;;;;5037235;28;20208;-81
2021/09/13 02:48:51;;;;;;;3.00;2.80;;;;;;;;;;5037167;28;20944;-82
2021/09/13 02:51:19;;;;;;;2.90;2.60;;;;;;;;;;5054266;28;20610;-81
2021/09/13 02:53:46;;;;;;;3.63;2.63;;;;;;;;;;5055168;28;20570;-81
2021/09/13 02:56:13;;;;;;;3.80;2.70;;;;;;;;;;5054379;28;20235;-81
2021/09/13 02:58:41;;;;;;;2.83;2.50;;;;;;;;;;5054592;28;20211;-81
2021/09/13 03:01:07;;;;;;;2.60;2.50;;;;;;;;;;5036835;28;20587;-81
2021/09/13 03:03:34;;;;;;;6.10;2.50;;;;;;;;;;5054829;28;20632;-81
2021/09/13 03:06:01;;;;;;;5.03;2.80;;;;;;;;;;5054342;28;20234;-81
2021/09/13 03:08:29;;;;;;;4.43;3.00;;;;;;;;;;5054642;28;20200;-81
2021/09/13 03:10:56;;;;;;;3.27;2.97;;;;;;;;;;5036940;28;20200;-81
2021/09/13 03:13:22;;;;;;;2.80;2.70;;;;;;;;;;5054213;28;20235;-81
2021/09/13 03:15:49;;;;;;;5.63;3.10;;;;;;;;;;5036648;28;20191;-81
2021/09/13 03:18:16;;;;;;;3.10;2.90;;;;;;;;;;5036623;28;20223;-81
2021/09/13 03:20:43;;;;;;;4.20;3.00;;;;;;;;;;5036994;28;20219;-81
2021/09/13 03:23:09;;;;;;;4.00;3.30;;;;;;;;;;5036537;28;20204;-81
2021/09/13 03:25:37;;;;;;;3.90;2.80;;;;;;;;;;5054170;28;20234;-81
2021/09/13 03:28:04;;;;;;;3.83;2.77;;;;;;;;;;5053111;28;20610;-81
2021/09/13 03:30:31;;;;;;;4.80;2.90;;;;;;;;;;5036303;28;20257;-82
2021/09/13 03:32:58;;;;;;;2.80;2.70;;;;;;;;;;5036280;28;20226;-81
2021/09/13 03:35:25;;;;;;;5.10;2.87;;;;;;;;;;5036276;28;20704;-81
2021/09/13 03:37:52;;;;;;;4.03;2.70;;;;;;;;;;5054116;28;20200;-81
2021/09/13 03:40:19;;;;;;;3.40;3.10;;;;;;;;;;5054072;28;20589;-81
2021/09/13 03:42:47;;;;;;;6.33;3.17;;;;;;;;;;5036313;28;20191;-81
2021/09/13 03:45:14;;;;;;;3.90;3.00;;;;;;;;;;5036125;28;20676;-81
2021/09/13 03:47:40;;;;;;;3.87;3.50;;;;;;;;;;5053733;28;20223;-81
2021/09/13 03:50:07;;;;;;;3.60;3.33;;;;;;;;;;5035813;28;20726;-81
2021/09/13 03:52:37;;;;;;;3.73;3.27;;;;;;;;;;5035558;28;20300;-80
2021/09/13 03:55:04;;;;;;;3.93;3.47;;;;;;;;;;5053470;28;20736;-81
2021/09/13 03:57:32;;;;;;;3.67;3.37;;;;;;;;;;5036037;28;20702;-81
2021/09/13 04:00:01;;;;;;;4.63;3.37;;;;;;;;;;5035866;28;20195;-80
2021/09/13 04:02:28;;;;;;;3.50;3.17;;;;;;;;;;5035905;28;20208;-81
2021/09/13 04:04:55;;;;;;;3.87;3.30;;;;;;;;;;5053728;28;20191;-80
2021/09/13 04:07:25;;;;;;;3.43;3.10;;;;;;;;;;5053547;28;20203;-81
2021/09/13 04:10:12;;;;;;;4.77;4.30;;;;;;;;;;5035909;28;20187;-81
2021/09/13 04:12:39;;;;;;;5.47;4.63;;;;;;;;;;5035809;28;20241;-81
2021/09/13 04:15:08;;;;;;;5.63;3.93;;;;;;;;;;5052517;28;20243;-81
2021/09/13 04:17:35;;;;;;;7.73;4.17;;;;;;;;;;5035292;28;20192;-81
2021/09/13 04:20:02;;;;;;;4.97;3.83;;;;;;;;;;5034890;28;20600;-81
2021/09/13 04:22:29;;;;;;;6.37;3.93;;;;;;;;;;5052574;28;20207;-81
2021/09/13 04:24:56;;;;;;;9.93;4.30;;;;;;;;;;5017895;28;20221;-81
2021/09/13 04:27:23;;;;;;;4.30;3.67;;;;;;;;;;5052196;28;20227;-82
2021/09/13 04:29:50;;;;;;;5.03;4.23;;;;;;;;;;5034939;28;20651;-81
2021/09/13 04:32:18;;;;;;;7.97;4.13;;;;;;;;;;5035113;28;20723;-82
2021/09/13 04:34:45;;;;;;;4.40;4.10;;;;;;;;;;5053247;28;20666;-81
2021/09/13 04:37:12;;;;;;;6.50;4.30;;;;;;;;;;5052425;28;20235;-83
2021/09/13 04:39:38;;;;;;;4.33;3.90;;;;;;;;;;5035014;28;20183;-82
2021/09/13 04:42:05;;;;;;;7.10;4.20;;;;;;;;;;5034901;28;20226;-82
2021/09/13 04:44:32;;;;;;;4.77;4.37;;;;;;;;;;5035123;28;20671;-82
2021/09/13 04:46:59;;;;;;;4.97;4.00;;;;;;;;;;5034941;28;20191;-82
2021/09/13 04:49:27;;;;;;;4.63;4.23;;;;;;;;;;5053092;28;20670;-82
2021/09/13 04:51:54;;;;;;;4.60;4.20;;;;;;;;;;5034990;28;20203;-81
2021/09/13 04:54:21;;;;;;;4.60;4.20;;;;;;;;;;5035100;28;20542;-83
2021/09/13 04:56:47;;;;;;;6.13;4.07;;;;;;;;;;5035142;28;20191;-82
2021/09/13 04:59:14;;;;;;;5.60;4.13;;;;;;;;;;5034753;28;20610;-82
2021/09/13 05:01:45;;;;;;;5.57;4.13;;;;;;;;;;5052945;28;20635;-83
2021/09/13 05:04:12;;;;;;;4.40;4.00;;;;;;;;;;5053132;28;20230;-83
2021/09/13 05:06:40;;;;;;;3.97;3.67;;;;;;;;;;5053265;28;20203;-85
2021/09/13 05:09:07;;;;;;;4.23;3.87;;;;;;;;;;5053094;28;20235;-83
2021/09/13 05:11:34;;;;;;;4.30;3.90;;;;;;;;;;5052917;28;20234;-83
2021/09/13 05:14:01;;;;;;;4.23;3.93;;;;;;;;;;5052080;28;20674;-82
2021/09/13 05:16:30;;;;;;;4.00;3.70;;;;;;;;;;5035411;28;20207;-83
2021/09/13 05:18:56;;;;;;;4.30;3.90;;;;;;;;;;5052599;28;20203;-83
2021/09/13 05:21:23;;;;;;;4.57;3.67;;;;;;;;;;5035320;28;20233;-83
2021/09/13 05:23:51;;;;;;;4.50;4.10;;;;;;;;;;5034680;28;20655;-83
2021/09/13 05:26:18;;;;;;;4.00;3.70;;;;;;;;;;5034679;28;20203;-83
2021/09/13 05:28:47;;;;;;;4.77;4.00;;;;;;;;;;5035053;28;20606;-83
2021/09/13 05:31:14;;;;;;;6.77;3.83;;;;;;;;;;5052444;28;20258;-83
2021/09/13 05:33:41;;;;;;;4.03;3.70;;;;;;;;;;5053166;28;20203;-82
2021/09/13 05:36:07;;;;;;;5.27;3.70;;;;;;;;;;5034975;28;20737;-82
2021/09/13 05:38:35;;;;;;;4.13;3.70;;;;;;;;;;5034798;28;20226;-82
2021/09/13 05:41:04;;;;;;;4.73;3.80;;;;;;;;;;5034882;28;20199;-83
2021/09/13 05:43:30;;;;;;;5.43;4.10;;;;;;;;;;5034812;28;20207;-83
2021/09/13 05:45:57;;;;;;;4.83;4.13;;;;;;;;;;5052869;28;20183;-83
2021/09/13 05:48:24;;;;;;;7.90;4.03;;;;;;;;;;5034654;28;20211;-83
2021/09/13 05:50:51;;;;;;;4.67;4.23;;;;;;;;;;5034613;28;20242;-83
2021/09/13 05:53:18;;;;;;;5.20;4.07;;;;;;;;;;5038806;28;20608;-82
2021/09/13 05:55:44;;;;;;;5.10;4.30;;;;;;;;;;5038104;28;20249;-83
2021/09/13 05:58:13;;;;;;;7.27;4.00;;;;;;;;;;5056576;28;20204;-83
2021/09/13 06:00:41;;;;;;;5.40;4.33;;;;;;;;;;5038511;28;20245;-83
2021/09/13 06:03:08;;;;;;;8.47;4.47;;;;;;;;;;5039039;28;20598;-84
2021/09/13 06:05:35;;;;;;;8.07;4.60;;;;;;;;;;5039199;28;20200;-84
2021/09/13 06:08:02;;;;;;;6.83;4.40;;;;;;;;;;5038577;28;20211;-82
2021/09/13 06:10:31;;;;;;;6.03;4.57;;;;;;;;;;5038498;28;20187;-83
2021/09/13 06:12:59;;;;;;;5.23;4.73;;;;;;;;;;5039063;28;20242;-84
2021/09/13 06:15:27;;;;;;;6.73;4.40;;;;;;;;;;5056615;28;20219;-83
2021/09/13 06:17:56;;;;;;;5.83;4.70;;;;;;;;;;5039053;28;20554;-84
2021/09/13 06:20:23;;;;;;;5.73;4.33;;;;;;;;;;5057250;28;20198;-83
2021/09/13 06:22:50;;;;;;;6.33;4.60;;;;;;;;;;5039318;28;20210;-84
2021/09/13 06:25:17;;;;;;;7.20;4.40;;;;;;;;;;5038619;28;20203;-84
2021/09/13 06:27:45;;;;;;;5.00;4.50;;;;;;;;;;5038543;28;20212;-84
2021/09/13 06:30:12;;;;;;;4.60;4.07;;;;;;;;;;5038999;28;20249;-84
2021/09/13 06:32:46;;;;;;;5.00;4.60;;;;;;;;;;5037596;28;20235;-83
2021/09/13 06:35:15;;;;;;;6.50;4.50;;;;;;;;;;5037614;28;20246;-83
2021/09/13 06:37:42;;;;;;;5.57;4.47;;;;;;;;;;5036790;28;20227;-84
2021/09/13 06:40:09;;;;;;;5.40;4.90;;;;;;;;;;5037790;28;20637;-84
2021/09/13 06:42:35;;;;;;;6.23;5.27;;;;;;;;;;5038114;28;20554;-82
2021/09/13 06:45:17;;;;;;;5.67;4.50;;;;;;;;;;5038281;28;20200;-84
2021/09/13 06:47:45;;;;;;;5.10;4.63;;;;;;;;;;5038509;28;20226;-84
2021/09/13 06:50:12;;;;;;;9.03;4.40;;;;;;;;;;5054807;28;20266;-83
2021/09/13 06:52:39;;;;;;;13.03;5.03;;;;;;;;;;5055658;28;20567;-85
2021/09/13 06:55:07;;;;;;;5.90;5.20;;;;;;;;;;5037683;28;20597;-83
2021/09/13 06:57:36;;;;;;;9.10;4.67;;;;;;;;;;5055695;28;20230;-84
2021/09/13 07:00:03;;;;;;;6.17;4.73;;;;;;;;;;5055849;28;20231;-83
2021/09/13 07:02:31;;;;;;;5.77;4.87;;;;;;;;;;5054763;28;20231;-84
2021/09/13 07:05:00;;;;;;;4.60;4.13;;;;;;;;;;5036810;28;20564;-83
2021/09/13 07:07:27;;;;;;;7.50;4.80;;;;;;;;;;5020298;28;20663;-83
2021/09/13 07:09:54;;;;;;;4.93;4.53;;;;;;;;;;5037142;28;20257;-83
2021/09/13 07:12:21;;;;;;;7.10;4.93;;;;;;;;;;5054650;28;20212;-83
2021/09/13 07:14:48;;;;;;;4.93;4.53;;;;;;;;;;5037255;28;20188;-82
2021/09/13 07:17:15;;;;;;;6.47;4.43;;;;;;;;;;5055203;28;20183;-82
2021/09/13 07:19:42;;;;;;;5.27;4.77;;;;;;;;;;5054941;28;20586;-83
2021/09/13 07:22:09;;;;;;;7.90;5.33;;;;;;;;;;5037696;28;20200;-82
2021/09/13 07:24:36;;;;;;;6.40;5.40;;;;;;;;;;5036777;28;20195;-82
2021/09/13 07:27:03;;;;;;;6.40;5.17;;;;;;;;;;5054832;28;20666;-84
2021/09/13 07:29:30;;;;;;;7.97;5.47;;;;;;;;;;5036384;28;20235;-81
2021/09/13 07:32:01;;;;;;;5.47;4.90;;;;;;;;;;5054208;28;20220;-83
2021/09/13 07:34:28;;;;;;;7.53;5.17;;;;;;;;;;5054898;28;20187;-84
2021/09/13 07:36:55;;;;;;;6.23;5.27;;;;;;;;;;5053749;28;20253;-83
2021/09/13 07:39:23;;;;;;;5.20;4.50;;;;;;;;;;5036745;28;20191;-83
2021/09/13 07:41:50;;;;;;;5.67;5.17;;;;;;;;;;5036743;28;20200;-83
2021/09/13 07:44:17;;;;;;;5.43;4.93;;;;;;;;;;5036358;28;20204;-82
2021/09/13 07:46:44;;;;;;;7.70;5.37;;;;;;;;;;5036415;28;20226;-82
2021/09/13 07:49:10;;;;;;;5.50;4.87;;;;;;;;;;5036346;28;20265;-82
2021/09/13 07:51:38;;;;;;;5.90;5.40;;;;;;;;;;5036291;28;20549;-82
2021/09/13 07:54:06;;;;;;;6.10;4.93;;;;;;;;;;5054443;28;20180;-82
2021/09/13 07:56:34;;;;;;;5.80;5.27;;;;;;;;;;5053876;28;20180;-82
2021/09/13 07:59:03;;;;;;;7.60;5.13;;;;;;;;;;5036359;28;20199;-82
2021/09/13 08:01:30;;;;;;;7.17;5.10;;;;;;;;;;5053659;28;20218;-83
2021/09/13 08:03:59;;;;;;;5.00;4.60;;;;;;;;;;5035880;28;20238;-83
2021/09/13 08:06:26;;;;;;;6.13;4.43;;;;;;;;;;5053561;28;20246;-83
2021/09/13 08:08:56;;;;;;;4.93;4.43;;;;;;;;;;5035212;28;20232;-84
2021/09/13 08:11:22;;;;;;;5.50;4.70;;;;;;;;;;5053933;28;20636;-84
2021/09/13 08:13:50;;;;;;;6.43;5.00;;;;;;;;;;5036232;28;20207;-84
2021/09/13 08:16:20;;;;;;;7.40;4.93;;;;;;;;;;5053937;28;20706;-82
2021/09/13 08:18:47;;;;;;;6.00;4.97;;;;;;;;;;5054121;28;20199;-84
2021/09/13 08:21:14;;;;;;;9.13;5.07;;;;;;;;;;5054176;28;20180;-83
2021/09/13 08:23:41;;;;;;;6.63;5.83;;;;;;;;;;5033476;28;20203;-83
2021/09/13 08:26:08;;;;;;;8.33;5.80;;;;;;;;;;5036269;28;20195;-84
2021/09/13 08:28:35;;;;;;;7.97;5.80;;;;;;;;;;5053970;28;20184;-83
2021/09/13 08:31:03;;;;;;;11.23;5.67;;;;;;;;;;5032182;28;20236;-83
2021/09/13 08:33:30;;;;;;;6.70;5.57;;;;;;;;;;5033994;28;20205;-83
2021/09/13 08:35:57;;;;;;;8.13;6.00;;;;;;;;;;5032504;28;20219;-84
2021/09/13 08:38:24;;;;;;;9.10;5.60;;;;;;;;;;5032647;28;20200;-84
2021/09/13 08:40:52;;;;;;;10.83;5.77;;;;;;;;;;5034075;28;20208;-85
2021/09/13 08:43:18;;;;;;;7.00;6.30;;;;;;;;;;5033851;28;20220;-82
2021/09/13 08:45:50;;;;;;;6.43;5.83;;;;;;;;;;5032136;28;20235;-83
2021/09/13 08:48:21;;;;;;;11.67;6.10;;;;;;;;;;5033668;28;20179;-83
2021/09/13 08:51:17;;;;;;;9.03;5.63;;;;;;;;;;5032129;28;20762;-82
2021/09/13 08:53:48;;;;;;;6.73;5.43;;;;;;;;;;5032324;28;20279;-84
2021/09/13 08:56:16;;;;;;;9.67;6.43;;;;;;;;;;5033272;28;20236;-83
2021/09/13 08:58:43;;;;;;;8.17;6.23;;;;;;;;;;5031580;28;20200;-84
2021/09/13 09:01:10;;;;;;;9.03;6.50;;;;;;;;;;5031987;28;20205;-84
2021/09/13 09:03:42;;;;;;;6.47;5.40;;;;;;;;;;5032441;28;20199;-83
2021/09/13 09:06:08;;;;;;;8.77;5.22;;;;;;;;;;5033426;28;20648;-84
2021/09/13 09:08:36;;;;;;;6.20;5.40;;;;;;;;;;5033434;28;20699;-82
2021/09/13 09:11:03;;;;;;;8.33;5.87;;;;;;;;;;5032263;28;20628;-85
2021/09/13 09:13:36;;;;;;;7.45;6.10;;;;;;;;;;5032554;28;20196;-84
2021/09/13 09:16:03;;;;;;;9.70;6.53;;;;;;;;;;5033624;28;20585;-86
2021/09/13 09:18:38;;;;;;;10.80;5.68;;;;;;;;;;5032199;28;20200;-83
2021/09/13 09:21:06;;;;;;;10.70;6.05;;;;;;;;;;5032024;28;20725;-86
2021/09/13 09:23:53;;;;;;;6.07;5.47;;;;;;;;;;5032034;28;20254;-83
2021/09/13 09:26:20;;;;;;;9.82;5.38;;;;;;;;;;5032626;28;20204;-85
2021/09/13 09:28:47;;;;;;;8.23;5.22;;;;;;;;;;5037533;28;20180;-85
2021/09/13 09:31:13;;;;;;;8.88;5.75;;;;;;;;;;5045346;28;20241;-84
2021/09/13 09:33:41;;;;;;;7.88;5.50;;;;;;;;;;5040268;28;20527;-86
2021/09/13 09:36:13;;;;;;;13.40;5.43;;;;;;;;;;5040246;28;20187;-85
2021/09/13 09:38:40;;;;;;;7.47;5.15;;;;;;;;;;5056778;28;20210;-85
2021/09/13 09:41:09;;;;;;;13.32;5.68;;;;;;;;;;5057530;28;20199;-84
2021/09/13 09:43:49;;;;;;;7.35;4.95;;;;;;;;;;5039189;28;20265;-85
2021/09/13 09:46:16;;;;;;;10.23;5.70;;;;;;;;;;5041191;28;20199;-88
2021/09/13 09:48:43;;;;;;;5.70;4.35;;;;;;;;;;5041699;28;20238;-87
2021/09/13 09:51:27;;;;;;;8.07;4.55;;;;;;;;;;5058829;28;20218;-85
2021/09/13 09:53:55;;;;;;;8.48;4.97;;;;;;;;;;5040184;28;20187;-85
2021/09/13 09:56:25;;;;;;;5.35;4.68;;;;;;;;;;5040135;28;20214;-86
2021/09/13 09:58:57;;;;;;;5.78;5.05;;;;;;;;;;5040802;28;20196;-87
2021/09/13 10:01:29;;;;;;;10.35;5.32;;;;;;;;;;5037986;28;20630;-84
2021/09/13 10:04:11;;;;;;;6.32;4.35;;;;;;;;;;5057374;28;20539;-86
2021/09/13 10:06:38;;;;;;;6.15;4.60;;;;;;;;;;5040844;28;20199;-90
2021/09/13 10:09:08;;;;;;;6.75;5.30;;;;;;;;;;5042086;28;20210;-87
2021/09/13 10:11:36;;;;;;;12.80;4.60;;;;;;;;;;5038712;28;20187;-85
2021/09/13 10:14:03;;;;;;;6.75;4.43;;;;;;;;;;5039197;28;20529;-84
2021/09/13 10:16:31;;;;;;;6.30;4.00;;;;;;;;;;5038507;28;20281;-85
2021/09/13 10:18:58;;;;;;;6.45;4.13;;;;;;;;;;5040367;28;20191;-84
2021/09/13 10:21:25;;;;;;;9.25;4.72;;;;;;;;;;5056153;28;20172;-87
2021/09/13 10:23:53;;;;;;;6.10;3.30;;;;;;;;;;5039694;28;20647;-87
2021/09/13 10:26:26;;;;;;;6.93;3.55;;;;;;;;;;5040238;28;20210;-84
2021/09/13 10:29:11;;;;;;;8.00;4.00;;;;;;;;;;5057211;28;20180;-83
2021/09/13 10:31:52;;;;;;;6.35;3.60;;;;;;;;;;5039978;28;20227;-87
2021/09/13 10:34:23;;;;;;;7.53;3.72;;;;;;;;;;5038005;28;20201;-88
2021/09/13 10:37:08;;;;;;;3.50;2.60;;;;;;;;;;5039714;28;20184;-88
2021/09/13 10:39:53;;;;;;;6.53;3.20;;;;;;;;;;5039531;28;20180;-85
2021/09/13 10:42:28;;;;;;;2.53;2.20;;;;;;;;;;5054098;28;20203;-87
2021/09/13 10:45:06;;;;;;;5.53;2.35;;;;;;;;;;5041079;28;20550;-85
2021/09/13 10:47:33;;;;;;;6.45;2.95;;;;;;;;;;5057638;28;20184;-88
2021/09/13 10:50:13;;;;;;;3.20;2.28;;;;;;;;;;5039057;28;20224;-86
2021/09/13 10:52:40;;;;;;;5.45;3.13;;;;;;;;;;5039537;28;20229;-87
2021/09/13 10:55:17;;;;;;;3.38;2.22;;;;;;;;;;5019664;28;20731;-86
2021/09/13 10:58:11;;;;;;;3.30;2.15;;;;;;;;;;5037647;28;20187;-87
2021/09/13 11:00:57;;;;;;;2.25;1.90;;;;;;;;;;5025929;28;20203;-85
2021/09/13 11:03:32;;;;;;;4.53;2.20;;;;;;;;;;5055343;28;20245;-86
2021/09/13 11:06:04;;;;;;;2.13;1.80;;;;;;;;;;5039352;28;20206;-88
2021/09/13 11:08:33;;;;;;;2.25;1.70;;;;;;;;;;5039868;28;20195;-88
2021/09/13 11:10:59;;;;;;;2.15;1.88;;;;;;;;;;5038896;28;20223;-87
2021/09/13 11:13:26;;;;;;;3.90;1.58;;;;;;;;;;5039502;28;20191;-86
2021/09/13 11:15:53;;;;;;;3.42;1.80;;;;;;;;;;5056161;28;20214;-87
2021/09/13 11:18:37;;;;;;;2.65;1.80;;;;;;;;;;5038649;28;20261;-86
2021/09/13 11:21:22;;;;;;;3.92;1.85;;;;;;;;;;5038540;28;20183;-86
2021/09/13 11:23:50;;;;;;;2.55;2.40;;;;;;;;;;5037574;28;20269;-85
2021/09/13 11:26:20;;;;;;;2.72;1.90;;;;;;;;;;5037960;28;20207;-85
2021/09/13 11:28:55;;;;;;;1.90;1.70;;;;;;;;;;5039361;28;20183;-88
2021/09/13 11:31:31;;;;;;;4.15;1.88;;;;;;;;;;5054724;28;20710;-85
2021/09/13 11:34:00;;;;;;;2.65;1.88;;;;;;;;;;5038657;28;20202;-85
2021/09/13 11:36:29;;;;;;;2.72;1.85;;;;;;;;;;5038250;28;20192;-86
2021/09/13 11:38:58;;;;;;;2.10;1.85;;;;;;;;;;5038492;28;20214;-85
2021/09/13 11:41:25;;;;;;;3.42;1.65;;;;;;;;;;5055356;28;20199;-87
2021/09/13 11:44:05;;;;;;;1.92;1.83;;;;;;;;;;5055431;28;20184;-87
2021/09/13 11:46:32;;;;;;;2.95;1.85;;;;;;;;;;5037593;28;20195;-87
2021/09/13 11:49:17;;;;;;;2.05;1.95;;;;;;;;;;5036934;28;20225;-89
2021/09/13 11:52:14;;;;;;;1.88;1.75;;;;;;;;;;5054769;28;20238;-84
2021/09/13 11:54:42;;;;;;;1.67;1.55;;;;;;;;;;4956726;28;20249;-86
2021/09/13 11:57:25;;;;;;;2.20;1.98;;;;;;;;;;5035959;28;20563;-86
2021/09/13 11:59:53;;;;;;;2.53;2.03;;;;;;;;;;5036381;28;20545;-87
2021/09/13 12:02:20;;;;;;;3.83;1.55;;;;;;;;;;5038099;28;20558;-86
2021/09/13 12:04:48;;;;;;;1.95;1.77;;;;;;;;;;5038320;28;20195;-86
2021/09/13 12:07:15;;;;;;;3.13;2.05;;;;;;;;;;5037612;28;20195;-87
2021/09/13 12:09:43;;;;;;;3.80;1.80;;;;;;;;;;5053830;28;20191;-84
2021/09/13 12:12:13;;;;;;;1.80;1.70;;;;;;;;;;5035043;28;20578;-82
2021/09/13 12:14:41;;;;;;;1.83;1.70;;;;;;;;;;5035009;28;20249;-82
2021/09/13 12:17:09;;;;;;;1.67;1.58;;;;;;;;;;5034330;28;20314;-85
2021/09/13 12:19:37;;;;;;;1.77;1.50;;;;;;;;;;5035084;28;20226;-84
2021/09/13 12:22:05;;;;;;;1.60;1.50;;;;;;;;;;5052008;28;20203;-85
2021/09/13 12:24:32;;;;;;;2.38;1.77;;;;;;;;;;5051839;28;20242;-84
2021/09/13 12:27:12;;;;;;;2.00;1.80;;;;;;;;;;5033568;28;20253;-84
2021/09/13 12:29:50;;;;;;;2.28;1.80;;;;;;;;;;5034070;28;20230;-85
2021/09/13 12:32:21;;;;;;;2.00;1.70;;;;;;;;;;5029909;28;20255;-84
2021/09/13 12:34:51;;;;;;;2.45;1.73;;;;;;;;;;5030587;28;20204;-84
2021/09/13 12:37:25;;;;;;;2.63;1.60;;;;;;;;;;5030641;28;20572;-84
2021/09/13 12:40:02;;;;;;;1.63;1.52;;;;;;;;;;5029719;28;20616;-84
2021/09/13 12:42:29;;;;;;;4.63;1.80;;;;;;;;;;5029915;28;20200;-84
2021/09/13 12:44:58;;;;;;;1.73;1.63;;;;;;;;;;5030216;28;20281;-85
2021/09/13 12:47:25;;;;;;;2.20;1.60;;;;;;;;;;5031179;28;20597;-85
2021/09/13 12:49:53;;;;;;;4.38;1.83;;;;;;;;;;5030131;28;20251;-84
2021/09/13 12:52:20;;;;;;;2.58;1.90;;;;;;;;;;5031181;28;20259;-85
2021/09/13 12:54:49;;;;;;;5.28;1.65;;;;;;;;;;5029980;28;20222;-85
2021/09/13 12:57:30;;;;;;;1.50;1.50;;;;;;;;;;5029755;28;20223;-83
2021/09/13 13:00:07;;;;;;;1.98;1.88;;;;;;;;;;5030953;28;20204;-84
2021/09/13 13:02:34;;;;;;;1.70;1.60;;;;;;;;;;5029522;28;20204;-86
2021/09/13 13:05:01;;;;;;;1.58;1.58;;;;;;;;;;5030008;28;20200;-85
2021/09/13 13:07:27;;;;;;;1.50;1.50;;;;;;;;;;5029328;28;20235;-85
2021/09/13 13:09:55;;;;;;;1.85;1.70;;;;;;;;;;5031510;28;20211;-81
2021/09/13 13:12:22;;;;;;;2.90;1.90;;;;;;;;;;5031628;28;20248;-81
2021/09/13 13:14:49;;;;;;;1.73;1.60;;;;;;;;;;5031345;28;20211;-84
2021/09/13 13:17:15;;;;;;;1.75;1.65;;;;;;;;;;5030797;28;20239;-81
2021/09/13 13:19:42;;;;;;;2.55;1.40;;;;;;;;;;5030774;28;20243;-81
2021/09/13 13:22:10;;;;;;;2.20;1.63;;;;;;;;;;5029598;28;20640;-81
2021/09/13 13:24:36;;;;;;;1.73;1.63;;;;;;;;;;5029679;28;20219;-82
2021/09/13 13:27:05;;;;;;;3.42;1.58;;;;;;;;;;5029223;28;20559;-80
2021/09/13 13:29:32;;;;;;;1.55;1.50;;;;;;;;;;5030748;28;20212;-82
2021/09/13 13:31:59;;;;;;;1.83;1.38;;;;;;;;;;5028839;28;20266;-81
2021/09/13 13:34:28;;;;;;;3.95;1.70;;;;;;;;;;5029286;28;20570;-82
2021/09/13 13:36:54;;;;;;;1.52;1.40;;;;;;;;;;5030898;28;20236;-81
2021/09/13 13:39:21;;;;;;;1.70;1.60;;;;;;;;;;5029612;28;20660;-81
2021/09/13 13:41:48;;;;;;;1.77;1.42;;;;;;;;;;5030651;28;20707;-82
2021/09/13 13:44:16;;;;;;;4.88;1.90;;;;;;;;;;5029348;28;20225;-82
2021/09/13 13:46:43;;;;;;;1.50;1.40;;;;;;;;;;5030770;28;20262;-83
2021/09/13 13:49:10;;;;;;;2.70;1.75;;;;;;;;;;5029393;28;20200;-82
2021/09/13 13:51:36;;;;;;;1.63;1.42;;;;;;;;;;5030735;28;20275;-83
2021/09/13 13:54:03;;;;;;;1.60;1.50;;;;;;;;;;5029193;28;20208;-82
2021/09/13 13:56:31;;;;;;;1.52;1.48;;;;;;;;;;5030553;28;20235;-85
2021/09/13 13:58:58;;;;;;;2.25;1.52;;;;;;;;;;5028957;28;20227;-82
2021/09/13 14:01:30;;;;;;;1.65;1.58;;;;;;;;;;5030459;28;20232;-82
2021/09/13 14:03:57;;;;;;;1.50;1.40;;;;;;;;;;5031045;28;20255;-85
2021/09/13 14:06:23;;;;;;;1.27;1.27;;;;;;;;;;5030954;28;20250;-83
2021/09/13 14:08:50;;;;;;;1.33;1.30;;;;;;;;;;5031267;28;20204;-84
2021/09/13 14:11:17;;;;;;;1.80;1.70;;;;;;;;;;5030986;28;20235;-84
2021/09/13 14:13:43;;;;;;;2.38;1.60;;;;;;;;;;5033821;28;20242;-82
2021/09/13 14:16:10;;;;;;;1.40;1.40;;;;;;;;;;5034902;28;20211;-82
2021/09/13 14:18:38;;;;;;;2.55;1.77;;;;;;;;;;5033177;28;20203;-83
2021/09/13 14:21:06;;;;;;;1.63;1.52;;;;;;;;;;5034560;28;20250;-83
2021/09/13 14:23:33;;;;;;;1.98;1.30;;;;;;;;;;5034497;28;20235;-84
2021/09/13 14:26:01;;;;;;;1.45;1.35;;;;;;;;;;5032529;28;20196;-81
2021/09/13 14:28:28;;;;;;;1.67;1.58;;;;;;;;;;5034258;28;20205;-81
2021/09/13 14:30:54;;;;;;;1.63;1.60;;;;;;;;;;5032723;28;20274;-81
2021/09/13 14:33:21;;;;;;;1.55;1.40;;;;;;;;;;5032967;28;20235;-80
2021/09/13 14:35:49;;;;;;;2.63;1.70;;;;;;;;;;5033159;28;20246;-81
2021/09/13 14:38:17;;;;;;;1.50;1.40;;;;;;;;;;5033041;28;20660;-81
2021/09/13 14:40:44;;;;;;;1.60;1.50;;;;;;;;;;5035397;28;20176;-80
2021/09/13 14:43:10;;;;;;;1.50;1.40;;;;;;;;;;5033296;28;20705;-82
2021/09/13 14:45:37;;;;;;;2.08;1.60;;;;;;;;;;5034741;28;20204;-82
2021/09/13 14:48:04;;;;;;;2.67;1.60;;;;;;;;;;5032988;28;20193;-81
2021/09/13 14:50:30;;;;;;;2.15;1.63;;;;;;;;;;5034178;28;20251;-81
2021/09/13 14:52:58;;;;;;;1.77;1.67;;;;;;;;;;5034067;28;20259;-81